sensor_id;sensor_type;location;lat;lon;timestamp;pressure;altitude;pressure_sealevel;temperature;humidity
70304;BME280;57712;48.752;11.348;2023-02-23T00:01:51;97165.94;;;5.33;100.00
70304;BME280;57712;48.752;11.348;2023-02-23T00:04:18;97153.16;;;5.33;100.00
70304;BME280;57712;48.752;11.348;2023-02-23T00:06:45;97146.53;;;5.38;100.00
70304;BME280;57712;48.752;11.348;2023-02-23T00:09:12;97153.53;;;5.35;100.00
70304;BME280;57712;48.752;11.348;2023-02-23T00:11:49;97150.84;;;5.25;100.00
70304;BME280;57712;48.752;11.348;2023-02-23T00:14:16;97158.22;;;5.24;100.00
70304;BME280;57712;48.752;11.348;2023-02-23T00:16:42;97164.41;;;5.17;100.00
70304;BME280;57712;48.752;11.348;2023-02-23T00:19:11;97164.03;;;5.15;100.00
70304;BME280;57712;48.752;11.348;2023-02-23T00:21:40;97156.66;;;5.16;100.00
70304;BME280;57712;48.752;11.348;2023-02-23T00:24:11;97155.91;;;5.15;100.00
70304;BME280;57712;48.752;11.348;2023-02-23T00:26:42;97155.09;;;5.18;100.00
70304;BME280;57712;48.752;11.348;2023-02-23T00:29:14;97160.16;;;5.24;100.00
70304;BME280;57712;48.752;11.348;2023-02-23T00:31:47;97157.06;;;5.21;100.00
70304;BME280;57712;48.752;11.348;2023-02-23T00:34:16;97155.91;;;5.15;100.00
70304;BME280;57712;48.752;11.348;2023-02-23T00:36:50;97158.22;;;5.13;100.00
70304;BME280;57712;48.752;11.348;2023-02-23T00:39:16;97155.13;;;5.15;100.00
70304;BME280;57712;48.752;11.348;2023-02-23T00:41:48;97149.31;;;5.09;100.00
70304;BME280;57712;48.752;11.348;2023-02-23T00:44:15;97156.28;;;5.07;100.00
70304;BME280;57712;48.752;11.348;2023-02-23T00:46:43;97160.16;;;5.09;100.00
70304;BME280;57712;48.752;11.348;2023-02-23T00:49:11;97159.03;;;5.03;100.00
70304;BME280;57712;48.752;11.348;2023-02-23T00:51:39;97163.28;;;5.08;100.00
70304;BME280;57712;48.752;11.348;2023-02-23T00:54:06;97166.00;;;5.11;100.00
70304;BME280;57712;48.752;11.348;2023-02-23T00:56:33;97166.00;;;5.04;100.00
70304;BME280;57712;48.752;11.348;2023-02-23T00:59:00;97174.16;;;5.04;100.00
70304;BME280;57712;48.752;11.348;2023-02-23T01:01:26;97176.84;;;5.04;100.00
70304;BME280;57712;48.752;11.348;2023-02-23T01:03:53;97177.63;;;5.05;100.00
70304;BME280;57712;48.752;11.348;2023-02-23T01:06:21;97175.28;;;5.10;100.00
70304;BME280;57712;48.752;11.348;2023-02-23T01:08:49;97177.22;;;5.13;100.00
70304;BME280;57712;48.752;11.348;2023-02-23T01:11:20;97174.50;;;5.17;100.00
70304;BME280;57712;48.752;11.348;2023-02-23T01:13:48;97176.84;;;5.15;100.00
70304;BME280;57712;48.752;11.348;2023-02-23T01:16:17;97188.84;;;5.17;100.00
70304;BME280;57712;48.752;11.348;2023-02-23T01:18:45;97180.72;;;5.14;100.00
70304;BME280;57712;48.752;11.348;2023-02-23T01:21:20;97186.16;;;5.21;100.00
70304;BME280;57712;48.752;11.348;2023-02-23T01:23:49;97193.13;;;5.18;100.00
70304;BME280;57712;48.752;11.348;2023-02-23T01:28:51;97190.41;;;5.22;100.00
70304;BME280;57712;48.752;11.348;2023-02-23T01:31:19;97183.81;;;5.19;100.00
70304;BME280;57712;48.752;11.348;2023-02-23T01:33:46;97182.63;;;5.28;100.00
70304;BME280;57712;48.752;11.348;2023-02-23T01:36:13;97179.91;;;5.28;100.00
70304;BME280;57712;48.752;11.348;2023-02-23T01:38:40;97179.91;;;5.28;100.00
70304;BME280;57712;48.752;11.348;2023-02-23T01:41:06;97183.81;;;5.23;100.00
70304;BME280;57712;48.752;11.348;2023-02-23T01:43:34;97175.66;;;5.27;100.00
70304;BME280;57712;48.752;11.348;2023-02-23T01:46:02;97178.38;;;5.23;100.00
70304;BME280;57712;48.752;11.348;2023-02-23T01:48:35;97171.78;;;5.24;100.00
70304;BME280;57712;48.752;11.348;2023-02-23T01:51:09;97168.28;;;5.24;100.00
70304;BME280;57712;48.752;11.348;2023-02-23T01:53:39;97170.63;;;5.25;100.00
70304;BME280;57712;48.752;11.348;2023-02-23T01:56:15;97169.06;;;5.24;100.00
70304;BME280;57712;48.752;11.348;2023-02-23T01:58:45;97169.06;;;5.28;100.00
70304;BME280;57712;48.752;11.348;2023-02-23T02:01:12;97165.16;;;5.29;100.00
70304;BME280;57712;48.752;11.348;2023-02-23T02:03:50;97163.25;;;5.26;100.00
70304;BME280;57712;48.752;11.348;2023-02-23T02:06:21;97164.41;;;5.32;100.00
70304;BME280;57712;48.752;11.348;2023-02-23T02:08:51;97161.28;;;5.33;100.00
70304;BME280;57712;48.752;11.348;2023-02-23T02:11:21;97161.28;;;5.37;100.00
70304;BME280;57712;48.752;11.348;2023-02-23T02:14:07;97157.38;;;5.41;100.00
70304;BME280;57712;48.752;11.348;2023-02-23T02:17:10;97154.66;;;5.45;100.00
70304;BME280;57712;48.752;11.348;2023-02-23T02:20:07;97159.28;;;5.51;100.00
70304;BME280;57712;48.752;11.348;2023-02-23T02:25:35;97159.28;;;5.48;100.00
70304;BME280;57712;48.752;11.348;2023-02-23T02:28:28;97151.91;;;5.52;100.00
70304;BME280;57712;48.752;11.348;2023-02-23T02:45:16;97141.81;;;5.56;100.00
70304;BME280;57712;48.752;11.348;2023-02-23T02:50:43;97140.63;;;5.57;100.00
70304;BME280;57712;48.752;11.348;2023-02-23T02:55:54;97141.00;;;5.59;100.00
70304;BME280;57712;48.752;11.348;2023-02-23T02:58:25;97143.31;;;5.61;100.00
70304;BME280;57712;48.752;11.348;2023-02-23T03:00:52;97137.09;;;5.67;100.00
70304;BME280;57712;48.752;11.348;2023-02-23T03:03:40;97141.00;;;5.63;100.00
70304;BME280;57712;48.752;11.348;2023-02-23T03:06:35;97142.53;;;5.67;100.00
70304;BME280;57712;48.752;11.348;2023-02-23T03:09:43;97144.50;;;5.63;100.00
70304;BME280;57712;48.752;11.348;2023-02-23T03:18:50;97144.81;;;5.72;100.00
70304;BME280;57712;48.752;11.348;2023-02-23T03:21:52;97147.19;;;5.74;100.00
70304;BME280;57712;48.752;11.348;2023-02-23T03:33:19;97152.59;;;5.70;100.00
70304;BME280;57712;48.752;11.348;2023-02-23T03:36:17;97158.03;;;5.74;100.00
70304;BME280;57712;48.752;11.348;2023-02-23T03:39:13;97146.41;;;5.73;100.00
70304;BME280;57712;48.752;11.348;2023-02-23T03:42:03;97151.84;;;5.70;100.00
70304;BME280;57712;48.752;11.348;2023-02-23T03:44:51;97147.16;;;5.70;100.00
70304;BME280;57712;48.752;11.348;2023-02-23T03:47:39;97145.63;;;5.69;100.00
70304;BME280;57712;48.752;11.348;2023-02-23T03:50:39;97154.13;;;5.78;100.00
70304;BME280;57712;48.752;11.348;2023-02-23T03:54:07;97148.31;;;5.76;100.00
70304;BME280;57712;48.752;11.348;2023-02-23T03:56:55;97151.81;;;5.77;100.00
70304;BME280;57712;48.752;11.348;2023-02-23T03:59:49;97156.47;;;5.73;100.00
70304;BME280;57712;48.752;11.348;2023-02-23T04:02:38;97156.47;;;5.73;100.00
70304;BME280;57712;48.752;11.348;2023-02-23T04:05:24;97154.16;;;5.71;100.00
70304;BME280;57712;48.752;11.348;2023-02-23T04:08:13;97156.47;;;5.73;100.00
70304;BME280;57712;48.752;11.348;2023-02-23T04:14:17;97157.69;;;5.61;100.00
70304;BME280;57712;48.752;11.348;2023-02-23T04:16:45;97162.75;;;5.52;100.00
70304;BME280;57712;48.752;11.348;2023-02-23T04:19:12;97156.97;;;5.46;100.00
70304;BME280;57712;48.752;11.348;2023-02-23T04:21:39;97163.56;;;5.45;100.00
70304;BME280;57712;48.752;11.348;2023-02-23T04:24:06;97162.81;;;5.45;100.00
70304;BME280;57712;48.752;11.348;2023-02-23T04:26:32;97172.50;;;5.39;100.00
70304;BME280;57712;48.752;11.348;2023-02-23T04:28:59;97174.06;;;5.40;100.00
70304;BME280;57712;48.752;11.348;2023-02-23T04:31:25;97174.47;;;5.35;100.00
70304;BME280;57712;48.752;11.348;2023-02-23T04:33:52;97181.81;;;5.38;100.00
70304;BME280;57712;48.752;11.348;2023-02-23T04:36:19;97177.19;;;5.35;100.00
70304;BME280;57712;48.752;11.348;2023-02-23T04:38:46;97179.91;;;5.31;100.00
70304;BME280;57712;48.752;11.348;2023-02-23T04:41:12;97184.56;;;5.34;100.00
70304;BME280;57712;48.752;11.348;2023-02-23T04:43:39;97178.75;;;5.25;100.00
70304;BME280;57712;48.752;11.348;2023-02-23T04:46:05;97172.16;;;5.30;100.00
70304;BME280;57712;48.752;11.348;2023-02-23T04:48:32;97175.66;;;5.27;100.00
70304;BME280;57712;48.752;11.348;2023-02-23T04:50:59;97169.06;;;5.24;100.00
70304;BME280;57712;48.752;11.348;2023-02-23T04:53:26;97168.28;;;5.24;100.00
70304;BME280;57712;48.752;11.348;2023-02-23T04:55:53;97171.00;;;5.24;100.00
70304;BME280;57712;48.752;11.348;2023-02-23T04:58:20;97168.69;;;5.18;100.00
70304;BME280;57712;48.752;11.348;2023-02-23T05:00:46;97174.47;;;5.20;100.00
70304;BME280;57712;48.752;11.348;2023-02-23T05:03:14;97175.28;;;5.17;100.00
70304;BME280;57712;48.752;11.348;2023-02-23T05:05:43;97183.44;;;5.21;100.00
70304;BME280;57712;48.752;11.348;2023-02-23T05:08:10;97182.25;;;5.22;100.00
70304;BME280;57712;48.752;11.348;2023-02-23T05:10:37;97186.91;;;5.21;100.00
70304;BME280;57712;48.752;11.348;2023-02-23T05:13:05;97184.97;;;5.18;100.00
70304;BME280;57712;48.752;11.348;2023-02-23T05:15:33;97178.78;;;5.21;100.00
70304;BME280;57712;48.752;11.348;2023-02-23T05:18:00;97177.59;;;5.19;100.00
70304;BME280;57712;48.752;11.348;2023-02-23T05:20:27;97176.06;;;5.18;100.00
70304;BME280;57712;48.752;11.348;2023-02-23T05:22:53;97173.75;;;5.13;100.00
70304;BME280;57712;48.752;11.348;2023-02-23T05:25:20;97171.78;;;5.10;100.00
70304;BME280;57712;48.752;11.348;2023-02-23T05:27:47;97170.63;;;5.14;100.00
70304;BME280;57712;48.752;11.348;2023-02-23T05:30:13;97173.72;;;5.09;100.00
70304;BME280;57712;48.752;11.348;2023-02-23T05:32:41;97177.63;;;5.15;100.00
70304;BME280;57712;48.752;11.348;2023-02-23T05:35:08;97183.81;;;5.16;100.00
70304;BME280;57712;48.752;11.348;2023-02-23T05:37:34;97181.47;;;5.18;100.00
70304;BME280;57712;48.752;11.348;2023-02-23T05:40:02;97176.06;;;5.14;100.00
70304;BME280;57712;48.752;11.348;2023-02-23T05:42:29;97194.69;;;5.16;100.00
70304;BME280;57712;48.752;11.348;2023-02-23T05:44:55;97188.88;;;5.14;100.00
70304;BME280;57712;48.752;11.348;2023-02-23T05:47:22;97190.03;;;5.16;100.00
70304;BME280;57712;48.752;11.348;2023-02-23T05:49:48;97189.22;;;5.19;100.00
70304;BME280;57712;48.752;11.348;2023-02-23T05:52:15;97188.84;;;5.25;100.00
70304;BME280;57712;48.752;11.348;2023-02-23T05:54:41;97193.91;;;5.22;100.00
70304;BME280;57712;48.752;11.348;2023-02-23T05:57:08;97189.97;;;5.31;100.00
70304;BME280;57712;48.752;11.348;2023-02-23T05:59:35;97204.75;;;5.22;100.00
70304;BME280;57712;48.752;11.348;2023-02-23T06:02:02;97200.88;;;5.24;100.00
70304;BME280;57712;48.752;11.348;2023-02-23T06:04:31;97203.22;;;5.21;100.00
70304;BME280;57712;48.752;11.348;2023-02-23T06:06:58;97205.94;;;5.21;100.00
70304;BME280;57712;48.752;11.348;2023-02-23T06:09:25;97202.41;;;5.28;100.00
70304;BME280;57712;48.752;11.348;2023-02-23T06:11:51;97208.22;;;5.37;100.00
70304;BME280;57712;48.752;11.348;2023-02-23T06:14:18;97207.81;;;5.39;100.00
70304;BME280;57712;48.752;11.348;2023-02-23T06:16:45;97202.41;;;5.32;100.00
70304;BME280;57712;48.752;11.348;2023-02-23T06:19:14;97211.31;;;5.39;100.00
70304;BME280;57712;48.752;11.348;2023-02-23T06:21:40;97211.69;;;5.45;100.00
70304;BME280;57712;48.752;11.348;2023-02-23T06:24:07;97200.03;;;5.48;100.00
70304;BME280;57712;48.752;11.348;2023-02-23T06:26:34;97211.69;;;5.48;100.00
70304;BME280;57712;48.752;11.348;2023-02-23T06:29:00;97214.00;;;5.50;100.00
70304;BME280;57712;48.752;11.348;2023-02-23T06:31:27;97213.22;;;5.53;100.00
70304;BME280;57712;48.752;11.348;2023-02-23T06:33:54;97210.91;;;5.55;100.00
70304;BME280;57712;48.752;11.348;2023-02-23T06:36:20;97218.66;;;5.53;100.00
70304;BME280;57712;48.752;11.348;2023-02-23T06:38:47;97213.22;;;5.53;100.00
70304;BME280;57712;48.752;11.348;2023-02-23T06:41:13;97218.63;;;5.60;100.00
70304;BME280;57712;48.752;11.348;2023-02-23T06:43:40;97219.81;;;5.63;100.00
70304;BME280;57712;48.752;11.348;2023-02-23T06:46:07;97219.75;;;5.70;100.00
70304;BME280;57712;48.752;11.348;2023-02-23T06:48:33;97218.97;;;5.76;100.00
70304;BME280;57712;48.752;11.348;2023-02-23T06:51:01;97226.31;;;5.83;100.00
70304;BME280;57712;48.752;11.348;2023-02-23T06:53:27;97227.50;;;5.86;100.00
70304;BME280;57712;48.752;11.348;2023-02-23T06:55:56;97230.19;;;5.96;100.00
70304;BME280;57712;48.752;11.348;2023-02-23T06:58:23;97231.69;;;6.08;100.00
70304;BME280;57712;48.752;11.348;2023-02-23T07:00:50;97228.94;;;6.15;100.00
70304;BME280;57712;48.752;11.348;2023-02-23T07:03:16;97232.78;;;6.21;100.00
70304;BME280;57712;48.752;11.348;2023-02-23T07:05:44;97242.50;;;6.22;100.00
70304;BME280;57712;48.752;11.348;2023-02-23T07:08:11;97239.31;;;6.34;100.00
70304;BME280;57712;48.752;11.348;2023-02-23T07:10:37;97238.56;;;6.30;100.00
70304;BME280;57712;48.752;11.348;2023-02-23T07:13:04;97239.28;;;6.42;100.00
70304;BME280;57712;48.752;11.348;2023-02-23T07:15:30;97240.84;;;6.43;100.00
70304;BME280;57712;48.752;11.348;2023-02-23T07:17:57;97247.00;;;6.54;100.00
70304;BME280;57712;48.752;11.348;2023-02-23T07:20:23;97250.41;;;6.69;100.00
70304;BME280;57712;48.752;11.348;2023-02-23T07:22:50;97250.38;;;6.72;100.00
70304;BME280;57712;48.752;11.348;2023-02-23T07:25:17;97250.03;;;6.63;100.00
70304;BME280;57712;48.752;11.348;2023-02-23T07:27:43;97244.47;;;6.84;100.00
70304;BME280;57712;48.752;11.348;2023-02-23T07:30:11;97247.94;;;6.88;100.00
70304;BME280;57712;48.752;11.348;2023-02-23T07:32:39;97245.91;;;7.00;100.00
70304;BME280;57712;48.752;11.348;2023-02-23T07:35:06;97249.75;;;7.06;100.00
70304;BME280;57712;48.752;11.348;2023-02-23T07:37:33;97243.50;;;7.09;100.00
70304;BME280;57712;48.752;11.348;2023-02-23T07:39:59;97253.56;;;7.15;100.00
70304;BME280;57712;48.752;11.348;2023-02-23T07:42:26;97247.28;;;7.22;100.00
70304;BME280;57712;48.752;11.348;2023-02-23T07:44:53;97244.47;;;7.33;100.00
70304;BME280;57712;48.752;11.348;2023-02-23T07:47:20;97244.81;;;7.35;100.00
70304;BME280;57712;48.752;11.348;2023-02-23T07:49:48;97250.22;;;7.38;100.00
70304;BME280;57712;48.752;11.348;2023-02-23T07:52:16;97249.91;;;7.29;100.00
70304;BME280;57712;48.752;11.348;2023-02-23T07:54:43;97248.38;;;7.28;100.00
70304;BME280;57712;48.752;11.348;2023-02-23T07:57:10;97251.75;;;7.43;100.00
70304;BME280;57712;48.752;11.348;2023-02-23T07:59:37;97254.44;;;7.46;100.00
70304;BME280;57712;48.752;11.348;2023-02-23T08:02:04;97244.66;;;7.52;100.00
70304;BME280;57712;48.752;11.348;2023-02-23T08:04:31;97247.28;;;7.60;100.00
70304;BME280;57712;48.752;11.348;2023-02-23T08:06:58;97249.66;;;7.58;100.00
70304;BME280;57712;48.752;11.348;2023-02-23T08:09:25;97253.16;;;7.62;100.00
70304;BME280;57712;48.752;11.348;2023-02-23T08:11:51;97252.47;;;7.50;100.00
70304;BME280;57712;48.752;11.348;2023-02-23T08:14:18;97253.88;;;7.66;100.00
70304;BME280;57712;48.752;11.348;2023-02-23T08:16:49;97254.47;;;7.84;100.00
70304;BME280;57712;48.752;11.348;2023-02-23T08:19:16;97259.44;;;7.93;100.00
70304;BME280;57712;48.752;11.348;2023-02-23T08:21:44;97261.28;;;7.99;100.00
70304;BME280;57712;48.752;11.348;2023-02-23T08:24:10;97255.03;;;8.02;100.00
70304;BME280;57712;48.752;11.348;2023-02-23T08:26:37;97249.47;;;8.09;100.00
70304;BME280;57712;48.752;11.348;2023-02-23T08:29:04;97245.94;;;8.13;100.00
70304;BME280;57712;48.752;11.348;2023-02-23T08:31:30;97246.44;;;8.38;100.00
70304;BME280;57712;48.752;11.348;2023-02-23T08:33:57;97248.94;;;8.52;100.00
70304;BME280;57712;48.752;11.348;2023-02-23T08:36:24;97249.56;;;8.63;100.00
70304;BME280;57712;48.752;11.348;2023-02-23T08:38:50;97248.78;;;8.66;100.00
70304;BME280;57712;48.752;11.348;2023-02-23T08:41:20;97253.41;;;8.70;100.00
70304;BME280;57712;48.752;11.348;2023-02-23T08:43:47;97254.69;;;8.61;100.00
70304;BME280;57712;48.752;11.348;2023-02-23T08:46:14;97253.03;;;8.67;100.00
70304;BME280;57712;48.752;11.348;2023-02-23T08:48:41;97254.50;;;8.76;100.00
70304;BME280;57712;48.752;11.348;2023-02-23T08:51:08;97247.53;;;8.98;100.00
70304;BME280;57712;48.752;11.348;2023-02-23T08:53:34;97250.03;;;9.12;100.00
70304;BME280;57712;48.752;11.348;2023-02-23T08:56:03;97246.41;;;9.19;100.00
70304;BME280;57712;48.752;11.348;2023-02-23T08:58:33;97246.94;;;9.34;100.00
70304;BME280;57712;48.752;11.348;2023-02-23T09:01:00;97246.72;;;9.68;100.00
70304;BME280;57712;48.752;11.348;2023-02-23T09:03:28;97256.00;;;9.94;100.00
70304;BME280;57712;48.752;11.348;2023-02-23T09:06:06;97247.44;;;9.92;100.00
70304;BME280;57712;48.752;11.348;2023-02-23T09:08:33;97246.94;;;10.56;100.00
70304;BME280;57712;48.752;11.348;2023-02-23T09:10:59;97249.91;;;10.46;100.00
70304;BME280;57712;48.752;11.348;2023-02-23T09:13:26;97243.00;;;10.57;100.00
70304;BME280;57712;48.752;11.348;2023-02-23T09:15:52;97243.47;;;10.88;100.00
70304;BME280;57712;48.752;11.348;2023-02-23T09:18:19;97242.75;;;10.68;100.00
70304;BME280;57712;48.752;11.348;2023-02-23T09:20:50;97249.44;;;10.67;100.00
70304;BME280;57712;48.752;11.348;2023-02-23T09:23:16;97250.31;;;11.13;100.00
70304;BME280;57712;48.752;11.348;2023-02-23T09:25:44;97247.44;;;11.36;100.00
70304;BME280;57712;48.752;11.348;2023-02-23T09:28:15;97246.91;;;11.25;100.00
70304;BME280;57712;48.752;11.348;2023-02-23T09:30:44;97240.38;;;10.70;100.00
70304;BME280;57712;48.752;11.348;2023-02-23T09:33:11;97240.06;;;10.84;100.00
70304;BME280;57712;48.752;11.348;2023-02-23T09:35:38;97239.97;;;10.88;100.00
70304;BME280;57712;48.752;11.348;2023-02-23T09:38:06;97246.69;;;10.67;100.00
70304;BME280;57712;48.752;11.348;2023-02-23T09:40:45;97237.13;;;10.75;100.00
70304;BME280;57712;48.752;11.348;2023-02-23T09:43:41;97243.00;;;10.57;100.00
70304;BME280;57712;48.752;11.348;2023-02-23T09:46:24;97240.06;;;10.84;100.00
70304;BME280;57712;48.752;11.348;2023-02-23T09:49:00;97253.66;;;10.88;100.00
70304;BME280;57712;48.752;11.348;2023-02-23T09:51:29;97245.59;;;10.81;100.00
70304;BME280;57712;48.752;11.348;2023-02-23T09:54:00;97247.91;;;11.15;100.00
70304;BME280;57712;48.752;11.348;2023-02-23T09:56:32;97256.66;;;11.42;100.00
70304;BME280;57712;48.752;11.348;2023-02-23T09:59:04;97255.56;;;11.40;100.00
70304;BME280;57712;48.752;11.348;2023-02-23T10:04:51;97250.84;;;12.14;100.00
70304;BME280;57712;48.752;11.348;2023-02-23T10:13:21;97250.63;;;12.51;100.00
70304;BME280;57712;48.752;11.348;2023-02-23T10:16:00;97251.13;;;12.33;100.00
70304;BME280;57712;48.752;11.348;2023-02-23T10:18:36;97255.44;;;12.47;100.00
70304;BME280;57712;48.752;11.348;2023-02-23T10:23:53;97262.09;;;11.75;100.00
70304;BME280;57712;48.752;11.348;2023-02-23T10:26:24;97261.25;;;11.78;100.00
70304;BME280;57712;48.752;11.348;2023-02-23T10:28:54;97263.44;;;11.38;100.00
70304;BME280;57712;48.752;11.348;2023-02-23T10:31:32;97265.41;;;11.37;100.00
70304;BME280;57712;48.752;11.348;2023-02-23T10:34:05;97267.41;;;11.37;100.00
70304;BME280;57712;48.752;11.348;2023-02-23T10:36:41;97268.97;;;11.83;100.00
70304;BME280;57712;48.752;11.348;2023-02-23T10:39:11;97264.78;;;11.62;100.00
70304;BME280;57712;48.752;11.348;2023-02-23T10:41:39;97265.88;;;11.65;100.00
70304;BME280;57712;48.752;11.348;2023-02-23T10:44:23;97269.69;;;11.38;100.00
70304;BME280;57712;48.752;11.348;2023-02-23T10:46:54;97260.72;;;11.38;100.00
70304;BME280;57712;48.752;11.348;2023-02-23T10:49:27;97260.94;;;11.60;100.00
70304;BME280;57712;48.752;11.348;2023-02-23T10:51:55;97258.47;;;11.33;100.00
70304;BME280;57712;48.752;11.348;2023-02-23T10:54:40;97258.13;;;11.47;100.00
70304;BME280;57712;48.752;11.348;2023-02-23T10:57:18;97263.88;;;11.36;100.00
70304;BME280;57712;48.752;11.348;2023-02-23T11:02:44;97261.03;;;11.23;100.00
70304;BME280;57712;48.752;11.348;2023-02-23T11:13:44;97258.03;;;11.02;100.00
70304;BME280;57712;48.752;11.348;2023-02-23T11:16:18;97260.41;;;10.83;100.00
70304;BME280;57712;48.752;11.348;2023-02-23T11:18:54;97266.38;;;10.62;100.00
70304;BME280;57712;48.752;11.348;2023-02-23T11:21:32;97252.31;;;10.60;100.00
70304;BME280;57712;48.752;11.348;2023-02-23T11:24:31;97252.00;;;10.58;100.00
70304;BME280;57712;48.752;11.348;2023-02-23T11:27:01;97248.38;;;10.61;100.00
70304;BME280;57712;48.752;11.348;2023-02-23T11:29:38;97246.66;;;10.51;100.00
70304;BME280;57712;48.752;11.348;2023-02-23T11:32:08;97245.56;;;10.28;100.00
70304;BME280;57712;48.752;11.348;2023-02-23T11:34:39;97251.03;;;10.48;100.00
70304;BME280;57712;48.752;11.348;2023-02-23T11:37:18;97248.16;;;10.35;100.00
70304;BME280;57712;48.752;11.348;2023-02-23T11:39:57;97243.22;;;10.47;100.00
70304;BME280;57712;48.752;11.348;2023-02-23T11:42:25;97238.97;;;10.62;100.00
70304;BME280;57712;48.752;11.348;2023-02-23T11:45:15;97243.84;;;10.54;100.00
70304;BME280;57712;48.752;11.348;2023-02-23T11:47:47;97236.22;;;10.62;100.00
70304;BME280;57712;48.752;11.348;2023-02-23T11:50:26;97237.91;;;10.76;100.00
70304;BME280;57712;48.752;11.348;2023-02-23T11:53:11;97233.00;;;10.83;100.00
70304;BME280;57712;48.752;11.348;2023-02-23T11:55:39;97240.53;;;10.63;100.00
70304;BME280;57712;48.752;11.348;2023-02-23T12:01:08;97223.09;;;11.06;100.00
70304;BME280;57712;48.752;11.348;2023-02-23T12:03:45;97224.06;;;11.15;100.00
70304;BME280;57712;48.752;11.348;2023-02-23T12:06:33;97228.72;;;11.31;100.00
70304;BME280;57712;48.752;11.348;2023-02-23T12:09:19;97224.88;;;11.28;100.00
70304;BME280;57712;48.752;11.348;2023-02-23T12:11:59;97218.16;;;11.46;100.00
70304;BME280;57712;48.752;11.348;2023-02-23T12:14:32;97218.03;;;11.66;100.00
70304;BME280;57712;48.752;11.348;2023-02-23T12:17:12;97213.56;;;11.88;100.00
70304;BME280;57712;48.752;11.348;2023-02-23T12:19:48;97214.56;;;11.94;100.00
70304;BME280;57712;48.752;11.348;2023-02-23T12:22:22;97218.31;;;12.00;100.00
70304;BME280;57712;48.752;11.348;2023-02-23T12:25:01;97208.59;;;12.50;100.00
70304;BME280;57712;48.752;11.348;2023-02-23T12:27:39;97200.94;;;12.45;100.00
70304;BME280;57712;48.752;11.348;2023-02-23T12:30:17;97197.41;;;12.57;100.00
70304;BME280;57712;48.752;11.348;2023-02-23T12:32:48;97211.47;;;11.92;100.00
70304;BME280;57712;48.752;11.348;2023-02-23T12:35:45;97208.66;;;12.08;100.00
70304;BME280;57712;48.752;11.348;2023-02-23T12:38:24;97199.25;;;12.09;100.00
70304;BME280;57712;48.752;11.348;2023-02-23T12:41:00;97202.00;;;12.22;100.00
70304;BME280;57712;48.752;11.348;2023-02-23T12:43:34;97197.22;;;11.97;100.00
70304;BME280;57712;48.752;11.348;2023-02-23T12:46:13;97199.69;;;12.21;100.00
70304;BME280;57712;48.752;11.348;2023-02-23T12:48:55;97203.53;;;12.10;100.00
70304;BME280;57712;48.752;11.348;2023-02-23T12:51:32;97195.56;;;12.54;100.00
70304;BME280;57712;48.752;11.348;2023-02-23T12:54:00;97188.50;;;12.79;100.00
70304;BME280;57712;48.752;11.348;2023-02-23T12:56:37;97187.75;;;12.65;100.00
70304;BME280;57712;48.752;11.348;2023-02-23T12:59:34;97195.06;;;12.18;100.00
70304;BME280;57712;48.752;11.348;2023-02-23T13:02:13;97186.81;;;12.05;100.00
70304;BME280;57712;48.752;11.348;2023-02-23T13:13:23;97174.66;;;12.44;100.00
70304;BME280;57712;48.752;11.348;2023-02-23T13:15:54;97171.59;;;12.42;100.00
70304;BME280;57712;48.752;11.348;2023-02-23T13:18:30;97174.44;;;12.77;100.00
70304;BME280;57712;48.752;11.348;2023-02-23T13:21:08;97168.19;;;12.51;100.00
70304;BME280;57712;48.752;11.348;2023-02-23T13:23:50;97175.63;;;12.25;100.00
70304;BME280;57712;48.752;11.348;2023-02-23T13:29:06;97168.47;;;12.14;100.00
70304;BME280;57712;48.752;11.348;2023-02-23T13:31:38;97164.41;;;12.19;100.00
70304;BME280;57712;48.752;11.348;2023-02-23T13:34:10;97163.88;;;12.11;100.00
70304;BME280;57712;48.752;11.348;2023-02-23T13:36:38;97168.03;;;12.03;100.00
70304;BME280;57712;48.752;11.348;2023-02-23T13:44:33;97156.97;;;12.58;100.00
70304;BME280;57712;48.752;11.348;2023-02-23T13:50:01;97152.34;;;12.67;100.00
70304;BME280;57712;48.752;11.348;2023-02-23T13:52:39;97151.44;;;12.96;100.00
70304;BME280;57712;48.752;11.348;2023-02-23T13:57:53;97151.00;;;12.85;100.00
70304;BME280;57712;48.752;11.348;2023-02-23T14:00:21;97148.28;;;12.85;100.00
70304;BME280;57712;48.752;11.348;2023-02-23T14:02:48;97148.88;;;13.14;100.00
70304;BME280;57712;48.752;11.348;2023-02-23T14:05:21;97146.47;;;12.91;100.00
70304;BME280;57712;48.752;11.348;2023-02-23T14:07:52;97146.59;;;12.87;100.00
70304;BME280;57712;48.752;11.348;2023-02-23T14:10:22;97148.28;;;12.85;100.00
70304;BME280;57712;48.752;11.348;2023-02-23T14:15:44;97135.13;;;13.14;100.00
70304;BME280;57712;48.752;11.348;2023-02-23T14:20:54;97142.34;;;12.74;100.00
70304;BME280;57712;48.752;11.348;2023-02-23T14:26:08;97147.06;;;12.86;100.00
70304;BME280;57712;48.752;11.348;2023-02-23T14:28:41;97144.06;;;12.93;100.00
70304;BME280;57712;48.752;11.348;2023-02-23T14:41:25;97134.97;;;12.58;100.00
70304;BME280;57712;48.752;11.348;2023-02-23T14:44:14;97129.81;;;12.73;100.00
70304;BME280;57712;48.752;11.348;2023-02-23T14:47:02;97134.41;;;12.76;100.00
70304;BME280;57712;48.752;11.348;2023-02-23T14:49:34;97130.59;;;12.35;100.00
70304;BME280;57712;48.752;11.348;2023-02-23T14:52:12;97130.72;;;12.44;100.00
70304;BME280;57712;48.752;11.348;2023-02-23T14:54:40;97130.28;;;12.33;100.00
70304;BME280;57712;48.752;11.348;2023-02-23T14:59:56;97126.53;;;12.27;100.00
70304;BME280;57712;48.752;11.348;2023-02-23T15:02:25;97130.28;;;12.33;100.00
70304;BME280;57712;48.752;11.348;2023-02-23T15:04:52;97125.19;;;12.19;100.00